Time;durP1;ratioP1;P1;durP2;ratioP2;P2;SDS_P1;SDS_P2;PMS_P1;PMS_P2;Temp;Humidity;BMP_temperature;BMP_pressure;BME280_temperature;BME280_humidity;BME280_pressure;Samples;Min_cycle;Max_cycle;Signal;HPM_P1;HPM_P2
2022/09/29 00:02:20;;;;;;;5.63;4.28;;;6.80;99.90;;;;;;5078748;28;20044;-77
2022/09/29 00:04:47;;;;;;;3.25;2.95;;;6.80;99.90;;;;;;5065349;28;20044;-77
2022/09/29 00:07:13;;;;;;;4.72;3.30;;;6.70;99.90;;;;;;5059146;28;20062;-76
2022/09/29 00:09:39;;;;;;;3.17;2.88;;;6.70;99.90;;;;;;5081965;28;20027;-77
2022/09/29 00:12:05;;;;;;;4.63;3.90;;;6.70;99.90;;;;;;5084816;28;20381;-75
2022/09/29 00:14:32;;;;;;;4.95;3.95;;;6.70;99.90;;;;;;5086870;28;20032;-76
2022/09/29 00:16:58;;;;;;;5.63;3.42;;;6.60;99.90;;;;;;5084336;28;20047;-76
2022/09/29 00:19:26;;;;;;;6.07;4.55;;;6.60;99.90;;;;;;5105037;28;20074;-76
2022/09/29 00:21:52;;;;;;;4.78;3.80;;;6.60;99.90;;;;;;5069871;28;20466;-76
2022/09/29 00:24:18;;;;;;;5.03;3.75;;;6.60;99.90;;;;;;5086623;28;20043;-76
2022/09/29 00:26:45;;;;;;;3.75;3.38;;;6.60;99.90;;;;;;5084910;28;20038;-76
2022/09/29 00:29:11;;;;;;;4.20;3.80;;;6.60;99.90;;;;;;5084658;28;20039;-76
2022/09/29 00:31:38;;;;;;;3.40;2.45;;;6.60;99.90;;;;;;5104186;28;20036;-76
2022/09/29 00:34:04;;;;;;;5.68;3.33;;;6.60;99.90;;;;;;5085198;28;20032;-76
2022/09/29 00:36:30;;;;;;;3.88;3.22;;;6.60;99.90;;;;;;5103655;28;20038;-75
2022/09/29 00:38:57;;;;;;;4.55;3.28;;;6.60;99.90;;;;;;5102372;28;20047;-76
2022/09/29 00:41:30;;;;;;;4.72;4.00;;;6.50;99.90;;;;;;5104803;28;20036;-75
2022/09/29 00:44:05;;;;;;;4.70;3.35;;;6.50;99.90;;;;;;5061523;28;20063;-76
2022/09/29 00:46:35;;;;;;;4.38;3.72;;;6.50;99.90;;;;;;5104390;28;20024;-76
2022/09/29 00:49:07;;;;;;;3.47;3.10;;;6.50;99.90;;;;;;5101933;28;20028;-75
2022/09/29 00:51:35;;;;;;;5.07;4.32;;;6.50;99.90;;;;;;5084580;28;20545;-77
2022/09/29 00:54:02;;;;;;;4.72;4.20;;;6.50;99.90;;;;;;5104789;28;20047;-76
2022/09/29 00:56:30;;;;;;;8.48;5.50;;;6.50;99.90;;;;;;5085566;28;20050;-76
2022/09/29 00:59:01;;;;;;;6.32;5.07;;;6.50;99.90;;;;;;5083314;28;20039;-77
2022/09/29 01:01:30;;;;;;;5.53;5.03;;;6.50;99.90;;;;;;5085844;28;20355;-76
2022/09/29 01:04:02;;;;;;;6.22;5.60;;;6.50;99.90;;;;;;5104536;28;20393;-77
2022/09/29 01:06:37;;;;;;;5.05;4.63;;;6.40;99.90;;;;;;5105039;28;20032;-77
2022/09/29 01:09:07;;;;;;;7.45;6.35;;;6.40;99.90;;;;;;5081118;28;20051;-77
2022/09/29 01:11:35;;;;;;;6.28;5.28;;;6.40;99.90;;;;;;5068730;28;20024;-76
2022/09/29 01:14:05;;;;;;;4.97;4.38;;;6.40;99.90;;;;;;5057970;28;20024;-78
2022/09/29 01:16:33;;;;;;;5.90;4.55;;;6.40;99.90;;;;;;5102090;28;20028;-76
2022/09/29 01:19:03;;;;;;;4.65;4.18;;;6.30;99.90;;;;;;5083148;28;20058;-77
2022/09/29 01:22:15;;;;;;;4.22;3.70;;;6.30;99.90;;;;;;5104811;28;20058;-76
2022/09/29 01:25:00;;;;;;;6.72;5.80;;;6.30;99.90;;;;;;5043127;28;20040;-77
2022/09/29 01:27:56;;;;;;;4.80;4.05;;;6.30;99.90;;;;;;5052887;28;20515;-77
2022/09/29 01:30:39;;;;;;;5.07;4.28;;;6.20;99.90;;;;;;5104198;28;20036;-78
2022/09/29 01:33:17;;;;;;;3.85;3.17;;;6.20;99.90;;;;;;5069060;28;20039;-77
2022/09/29 01:35:51;;;;;;;3.38;3.08;;;6.20;99.90;;;;;;5103379;28;20039;-77
2022/09/29 01:38:49;;;;;;;5.82;4.70;;;6.20;99.90;;;;;;5099178;28;20055;-76
2022/09/29 01:41:45;;;;;;;4.05;3.40;;;6.20;99.90;;;;;;5067697;28;20043;-76
2022/09/29 01:44:24;;;;;;;4.10;3.53;;;6.20;99.90;;;;;;5103186;28;20047;-77
2022/09/29 01:47:05;;;;;;;4.85;4.22;;;6.10;99.90;;;;;;5101794;28;20036;-77
2022/09/29 01:49:35;;;;;;;6.38;5.78;;;6.10;99.90;;;;;;5085535;28;20039;-76
2022/09/29 01:52:08;;;;;;;5.88;5.38;;;6.10;99.90;;;;;;5085693;28;20418;-77
2022/09/29 01:54:59;;;;;;;7.68;6.07;;;6.10;99.90;;;;;;5085120;28;20040;-77
2022/09/29 01:57:28;;;;;;;6.00;5.40;;;6.10;99.90;;;;;;5065089;28;20050;-77
2022/09/29 02:00:08;;;;;;;7.80;5.13;;;6.10;99.90;;;;;;5084988;28;20048;-78
2022/09/29 02:03:19;;;;;;;4.43;4.03;;;6.10;99.90;;;;;;5085567;28;20035;-77
2022/09/29 02:05:50;;;;;;;4.82;4.43;;;6.10;99.90;;;;;;5102501;28;20038;-78
2022/09/29 02:08:19;;;;;;;5.22;3.83;;;6.10;99.90;;;;;;5064449;28;20468;-76
2022/09/29 02:11:01;;;;;;;4.90;4.05;;;6.00;99.90;;;;;;5084549;28;20396;-78
2022/09/29 02:13:37;;;;;;;4.28;3.80;;;6.00;99.90;;;;;;5103643;28;20047;-76
2022/09/29 02:16:05;;;;;;;7.93;5.05;;;6.00;99.90;;;;;;5067719;28;20023;-78
2022/09/29 02:18:39;;;;;;;5.30;4.32;;;6.00;99.90;;;;;;5039515;28;20390;-78
2022/09/29 02:21:05;;;;;;;4.57;4.00;;;6.00;99.90;;;;;;5102534;28;20488;-77
2022/09/29 02:23:31;;;;;;;7.32;6.30;;;5.90;99.90;;;;;;5103027;28;20027;-77
2022/09/29 02:25:59;;;;;;;10.10;6.43;;;5.90;99.90;;;;;;5084975;28;20054;-77
2022/09/29 02:28:26;;;;;;;6.68;6.07;;;5.90;99.90;;;;;;5098968;28;20401;-77
2022/09/29 02:30:53;;;;;;;7.93;5.13;;;6.00;99.90;;;;;;5103253;28;20039;-77
2022/09/29 02:33:21;;;;;;;4.50;4.10;;;5.90;99.90;;;;;;5101739;28;20740;-77
2022/09/29 02:36:26;;;;;;;5.25;4.75;;;5.90;99.90;;;;;;5102671;28;20035;-77
2022/09/29 02:39:30;;;;;;;5.00;4.15;;;5.90;99.90;;;;;;5080798;28;20497;-78
2022/09/29 02:42:06;;;;;;;4.82;4.32;;;5.90;99.90;;;;;;5078097;28;20434;-77
2022/09/29 02:44:40;;;;;;;3.95;3.53;;;5.90;99.90;;;;;;5102052;28;20044;-76
2022/09/29 02:47:15;;;;;;;5.63;5.03;;;5.90;99.90;;;;;;5098383;28;20040;-77
2022/09/29 02:49:41;;;;;;;4.82;4.43;;;5.90;99.90;;;;;;5083023;28;20034;-77
2022/09/29 02:52:15;;;;;;;6.22;5.63;;;5.80;99.90;;;;;;5102164;28;20023;-76
2022/09/29 02:54:55;;;;;;;5.00;4.60;;;5.90;99.90;;;;;;5101794;28;20035;-77
2022/09/29 02:57:41;;;;;;;7.60;6.78;;;5.90;99.90;;;;;;5080515;28;20039;-76
2022/09/29 03:00:13;;;;;;;7.80;7.00;;;5.80;99.90;;;;;;5101746;28;20385;-76
2022/09/29 03:02:41;;;;;;;6.72;6.00;;;5.80;99.90;;;;;;5085606;28;20521;-77
2022/09/29 03:05:11;;;;;;;6.10;5.50;;;5.80;99.90;;;;;;5083792;28;20054;-76
2022/09/29 03:07:38;;;;;;;4.85;4.45;;;5.80;99.90;;;;;;5098514;28;20028;-76
2022/09/29 03:10:06;;;;;;;4.40;4.00;;;5.70;99.90;;;;;;5082521;28;20036;-77
2022/09/29 03:12:33;;;;;;;4.70;4.20;;;5.70;99.90;;;;;;5102169;28;20504;-76
2022/09/29 03:14:59;;;;;;;6.25;5.45;;;5.70;99.90;;;;;;5101377;28;20051;-76
2022/09/29 03:17:26;;;;;;;7.57;6.88;;;5.70;99.90;;;;;;5080455;28;20036;-75
2022/09/29 03:19:52;;;;;;;8.35;6.88;;;5.70;99.90;;;;;;5083823;28;20481;-76
2022/09/29 03:22:18;;;;;;;6.32;5.50;;;5.70;99.90;;;;;;5083514;28;20401;-77
2022/09/29 03:24:45;;;;;;;5.85;5.18;;;5.70;99.90;;;;;;5083174;28;20572;-77
2022/09/29 03:27:11;;;;;;;9.18;8.27;;;5.60;99.90;;;;;;5054371;28;20028;-77
2022/09/29 03:29:38;;;;;;;8.88;7.78;;;5.60;99.90;;;;;;5053039;28;20039;-76
2022/09/29 03:32:04;;;;;;;6.53;5.93;;;5.60;99.90;;;;;;5057182;28;20374;-77
2022/09/29 03:34:32;;;;;;;7.50;6.20;;;5.60;99.90;;;;;;5102297;28;20039;-76
2022/09/29 03:36:58;;;;;;;6.05;5.38;;;5.60;99.90;;;;;;5064290;28;20810;-77
2022/09/29 03:39:25;;;;;;;7.72;6.60;;;5.60;99.90;;;;;;5101851;28;20039;-77
2022/09/29 03:41:51;;;;;;;8.18;7.05;;;5.50;99.90;;;;;;5083551;28;20035;-78
2022/09/29 03:44:17;;;;;;;9.68;7.93;;;5.50;99.90;;;;;;5101381;28;20051;-77
2022/09/29 03:46:45;;;;;;;7.10;6.00;;;5.50;99.90;;;;;;5081002;28;20028;-76
2022/09/29 03:49:12;;;;;;;9.13;6.35;;;5.50;99.90;;;;;;5099460;28;20496;-76
2022/09/29 03:51:38;;;;;;;7.88;7.07;;;5.50;99.90;;;;;;5102030;28;20032;-76
2022/09/29 03:54:05;;;;;;;8.27;7.28;;;5.50;99.90;;;;;;5083604;28;20040;-76
2022/09/29 03:56:33;;;;;;;9.63;7.97;;;5.50;99.90;;;;;;5083670;28;20711;-76
2022/09/29 03:58:59;;;;;;;17.00;7.60;;;5.50;99.90;;;;;;5099264;28;20105;-76
2022/09/29 04:01:25;;;;;;;14.13;7.38;;;5.50;99.90;;;;;;5101847;28;20039;-77
2022/09/29 04:03:51;;;;;;;14.27;9.18;;;5.50;99.90;;;;;;5101696;28;20039;-77
2022/09/29 04:06:18;;;;;;;12.45;7.63;;;5.60;99.90;;;;;;5101601;28;20046;-76
2022/09/29 04:08:44;;;;;;;28.65;8.18;;;5.60;99.90;;;;;;5098663;28;20090;-77
2022/09/29 04:11:10;;;;;;;16.40;8.32;;;5.60;99.90;;;;;;5081997;28;20039;-77
2022/09/29 04:13:37;;;;;;;10.88;8.57;;;5.60;99.90;;;;;;5083698;28;20056;-77
2022/09/29 04:16:04;;;;;;;15.18;7.60;;;5.60;99.90;;;;;;5071882;28;20038;-77
2022/09/29 04:18:31;;;;;;;23.20;8.38;;;5.60;99.90;;;;;;5098154;28;20067;-76
2022/09/29 04:20:59;;;;;;;22.45;8.00;;;5.60;99.90;;;;;;5102289;28;20417;-76
2022/09/29 04:23:29;;;;;;;16.27;8.32;;;5.60;99.90;;;;;;5101804;28;20047;-76
2022/09/29 04:25:56;;;;;;;13.30;9.35;;;5.70;99.90;;;;;;5054055;28;20040;-76
2022/09/29 04:28:23;;;;;;;15.98;10.93;;;5.70;99.90;;;;;;5081967;28;20043;-78
2022/09/29 04:30:50;;;;;;;12.38;9.52;;;5.70;99.90;;;;;;5065666;28;20058;-78
2022/09/29 04:33:17;;;;;;;16.42;10.68;;;5.70;99.90;;;;;;5081956;28;20036;-77
2022/09/29 04:35:43;;;;;;;12.88;9.43;;;5.80;99.90;;;;;;5084295;28;20372;-77
2022/09/29 04:38:09;;;;;;;11.98;10.32;;;5.80;99.90;;;;;;5097901;28;20477;-76
2022/09/29 04:40:36;;;;;;;14.18;9.50;;;5.80;99.90;;;;;;5101069;28;20034;-77
2022/09/29 04:43:03;;;;;;;14.75;11.88;;;5.80;99.90;;;;;;5083068;28;20042;-77
2022/09/29 04:45:30;;;;;;;18.85;11.95;;;5.90;99.90;;;;;;5048547;28;20048;-77
2022/09/29 04:47:56;;;;;;;15.82;10.98;;;5.90;99.90;;;;;;5079659;28;20039;-76
2022/09/29 04:50:23;;;;;;;18.40;10.60;;;5.90;99.90;;;;;;5101391;28;20040;-77
2022/09/29 04:52:49;;;;;;;53.55;11.88;;;6.00;99.90;;;;;;5100734;28;20105;-77
2022/09/29 04:55:15;;;;;;;35.75;6.80;;;6.00;99.90;;;;;;5065562;28;20379;-77
2022/09/29 04:57:43;;;;;;;32.20;8.52;;;6.00;99.90;;;;;;5098313;28;20035;-77
2022/09/29 05:00:10;;;;;;;44.03;8.52;;;6.00;99.90;;;;;;5104393;28;20033;-76
2022/09/29 05:02:37;;;;;;;18.60;7.20;;;6.10;99.90;;;;;;5065071;28;20035;-76
2022/09/29 05:05:05;;;;;;;15.63;5.07;;;6.10;99.90;;;;;;5086008;28;20027;-77
2022/09/29 05:07:34;;;;;;;34.40;6.72;;;6.10;99.90;;;;;;5066254;28;20042;-77
2022/09/29 05:10:01;;;;;;;34.30;7.22;;;6.10;99.90;;;;;;5086626;28;20047;-77
2022/09/29 05:12:27;;;;;;;12.60;6.82;;;6.10;99.90;;;;;;5102987;28;20052;-76
2022/09/29 05:14:53;;;;;;;29.45;8.10;;;6.10;99.90;;;;;;5103718;28;20056;-75
2022/09/29 05:17:19;;;;;;;27.15;8.32;;;6.10;99.90;;;;;;5101325;28;20035;-77
2022/09/29 05:19:46;;;;;;;18.40;6.28;;;6.20;99.90;;;;;;5084653;28;20040;-78
2022/09/29 05:22:12;;;;;;;29.90;7.47;;;6.20;99.90;;;;;;5084029;28;20044;-77
2022/09/29 05:24:38;;;;;;;25.50;5.97;;;6.20;99.90;;;;;;5084216;28;20023;-75
2022/09/29 05:27:04;;;;;;;32.25;7.88;;;6.20;99.90;;;;;;5098740;28;20023;-78
2022/09/29 05:29:31;;;;;;;32.80;7.68;;;6.20;99.90;;;;;;5099669;28;20028;-78
2022/09/29 05:31:57;;;;;;;46.00;9.73;;;6.20;99.90;;;;;;5084209;28;20537;-75
2022/09/29 05:34:23;;;;;;;28.42;7.63;;;6.30;99.90;;;;;;5065389;28;20572;-75
2022/09/29 05:36:50;;;;;;;40.92;7.82;;;6.30;99.90;;;;;;5080433;28;20047;-76
2022/09/29 05:39:16;;;;;;;26.20;8.50;;;6.30;99.90;;;;;;5105611;27;20446;-78
2022/09/29 05:41:42;;;;;;;32.92;10.02;;;6.30;99.90;;;;;;5066976;28;20035;-76
2022/09/29 05:44:09;;;;;;;27.27;10.32;;;6.30;99.90;;;;;;5081345;28;20044;-76
2022/09/29 05:46:35;;;;;;;34.22;8.93;;;6.30;99.90;;;;;;5065326;28;20024;-75
2022/09/29 05:49:01;;;;;;;22.90;8.15;;;6.40;99.90;;;;;;5081512;28;20059;-77
2022/09/29 05:51:28;;;;;;;27.00;8.30;;;6.40;99.90;;;;;;5086495;28;20058;-79
2022/09/29 05:53:55;;;;;;;45.53;9.32;;;6.40;99.90;;;;;;5065776;28;20039;-76
2022/09/29 05:56:24;;;;;;;13.40;7.55;;;6.40;99.90;;;;;;5100359;28;20036;-76
2022/09/29 05:58:51;;;;;;;19.25;7.90;;;6.30;99.90;;;;;;5096555;27;20374;-77
2022/09/29 06:01:20;;;;;;;25.75;9.02;;;6.30;99.90;;;;;;5100587;28;20040;-76
2022/09/29 06:03:46;;;;;;;21.95;9.68;;;6.30;99.90;;;;;;5103202;28;20098;-76
2022/09/29 06:06:19;;;;;;;15.80;8.35;;;6.30;99.90;;;;;;5065442;28;20035;-76
2022/09/29 06:08:47;;;;;;;13.98;9.15;;;6.30;99.90;;;;;;5078678;28;20032;-78
2022/09/29 06:11:39;;;;;;;15.32;7.97;;;6.40;99.90;;;;;;5082485;28;20016;-76
2022/09/29 06:14:05;;;;;;;14.00;8.20;;;6.40;99.90;;;;;;5078094;28;20040;-76
2022/09/29 06:16:32;;;;;;;27.70;10.18;;;6.30;99.90;;;;;;5100323;28;20537;-74
2022/09/29 06:19:00;;;;;;;18.27;8.15;;;6.40;99.90;;;;;;5064989;28;20046;-83
2022/09/29 06:21:28;;;;;;;27.95;8.90;;;6.40;99.90;;;;;;5057121;28;20039;-81
2022/09/29 06:23:56;;;;;;;20.88;10.10;;;6.40;99.90;;;;;;5102152;28;20028;-81
2022/09/29 06:26:24;;;;;;;14.57;8.48;;;6.40;99.90;;;;;;5100779;28;20028;-81
2022/09/29 06:28:55;;;;;;;14.15;7.00;;;6.50;99.90;;;;;;5098329;28;20063;-82
2022/09/29 06:31:23;;;;;;;16.67;7.75;;;6.50;99.90;;;;;;5100184;27;20027;-77
2022/09/29 06:33:49;;;;;;;26.13;11.65;;;6.50;99.90;;;;;;5076227;28;20481;-81
2022/09/29 06:39:29;;;;;;;63.60;9.23;;;6.60;99.90;;;;;;5099370;28;20501;-78
2022/09/29 06:41:55;;;;;;;26.98;9.68;;;6.70;99.90;;;;;;5066580;28;20975;-78
2022/09/29 06:44:23;;;;;;;80.55;10.48;;;6.80;99.90;;;;;;5083555;28;20051;-78
2022/09/29 06:46:50;;;;;;;30.55;12.57;;;6.80;99.90;;;;;;5061111;28;20044;-77
2022/09/29 06:49:18;;;;;;;15.45;8.35;;;6.90;99.90;;;;;;5097845;28;20036;-78
2022/09/29 06:51:44;;;;;;;66.90;12.50;;;6.90;99.90;;;;;;5065808;28;20046;-80
2022/09/29 06:54:15;;;;;;;16.92;9.63;;;7.00;99.90;;;;;;5100414;28;20061;-79
2022/09/29 06:56:41;;;;;;;38.95;9.57;;;7.10;99.90;;;;;;5101649;28;20024;-79
2022/09/29 06:59:08;;;;;;;49.83;10.98;;;7.20;99.90;;;;;;5080344;28;20034;-79
2022/09/29 07:01:34;;;;;;;33.38;13.93;;;7.30;99.90;;;;;;5101730;28;20028;-78
2022/09/29 07:04:01;;;;;;;21.60;12.18;;;7.30;99.90;;;;;;5065344;28;20993;-81
2022/09/29 07:06:28;;;;;;;30.77;15.13;;;7.40;99.90;;;;;;5065486;28;20095;-82
2022/09/29 07:08:55;;;;;;;26.58;16.10;;;7.50;99.90;;;;;;5098509;28;20035;-77
2022/09/29 07:11:21;;;;;;;30.40;12.52;;;7.60;99.90;;;;;;5083303;28;20042;-79
2022/09/29 07:13:50;;;;;;;24.08;11.77;;;7.60;99.90;;;;;;5059561;28;20063;-78
2022/09/29 07:16:16;;;;;;;19.38;9.95;;;7.70;99.90;;;;;;5100995;28;20044;-80
2022/09/29 07:18:45;;;;;;;23.08;11.35;;;7.80;99.90;;;;;;5098345;28;20038;-77
2022/09/29 07:21:17;;;;;;;32.95;11.68;;;7.70;99.90;;;;;;5082860;28;20063;-78
2022/09/29 07:23:45;;;;;;;21.63;12.98;;;7.80;99.90;;;;;;5083201;28;20393;-76
2022/09/29 07:26:13;;;;;;;29.05;13.35;;;7.80;99.90;;;;;;5085796;28;20059;-78
2022/09/29 07:28:39;;;;;;;94.63;18.33;;;7.90;99.90;;;;;;5046814;28;20041;-78
2022/09/29 07:31:08;;;;;;;28.10;14.48;;;8.00;99.90;;;;;;5048944;28;20404;-77
2022/09/29 07:33:34;;;;;;;61.97;15.35;;;8.10;99.90;;;;;;5096922;28;20035;-78
2022/09/29 07:36:01;;;;;;;42.35;17.08;;;8.10;99.90;;;;;;5098149;28;20405;-79
2022/09/29 07:38:28;;;;;;;20.05;16.70;;;8.20;99.90;;;;;;5078018;28;20682;-77
2022/09/29 07:41:00;;;;;;;64.75;18.63;;;8.30;99.90;;;;;;5099788;28;20028;-78
2022/09/29 07:43:27;;;;;;;20.05;15.88;;;8.30;99.90;;;;;;5081659;28;20521;-79
2022/09/29 07:45:53;;;;;;;24.27;15.40;;;8.50;99.90;;;;;;5082437;28;20039;-81
2022/09/29 07:48:19;;;;;;;19.60;16.17;;;8.60;99.90;;;;;;5096672;28;20082;-79
2022/09/29 07:50:45;;;;;;;18.05;15.43;;;8.60;99.90;;;;;;5101881;28;20030;-78
2022/09/29 07:53:12;;;;;;;33.13;17.55;;;8.70;99.90;;;;;;5101396;28;20028;-76
2022/09/29 07:55:39;;;;;;;25.27;17.35;;;8.80;99.90;;;;;;5082355;28;20039;-78
2022/09/29 07:58:05;;;;;;;31.95;17.80;;;9.00;99.90;;;;;;5095512;28;20466;-78
2022/09/29 08:00:32;;;;;;;28.83;18.50;;;9.00;99.90;;;;;;5083675;28;21224;-78
2022/09/29 08:03:05;;;;;;;26.67;19.63;;;9.10;99.90;;;;;;5083376;28;20047;-78
2022/09/29 08:05:32;;;;;;;35.45;22.75;;;9.30;99.90;;;;;;5101712;28;20541;-77
2022/09/29 08:08:03;;;;;;;25.83;17.25;;;9.40;99.90;;;;;;5096847;28;20040;-81
2022/09/29 08:10:31;;;;;;;21.67;17.85;;;9.50;99.90;;;;;;5082984;28;20375;-78
2022/09/29 08:12:58;;;;;;;37.88;20.73;;;9.60;99.90;;;;;;5082865;28;20576;-80
2022/09/29 08:15:25;;;;;;;25.67;18.52;;;9.60;99.90;;;;;;5101116;28;20406;-80
2022/09/29 08:17:53;;;;;;;18.13;14.32;;;9.70;99.90;;;;;;5093516;28;20051;-80
2022/09/29 08:20:21;;;;;;;28.95;21.88;;;9.70;99.90;;;;;;5099038;28;20035;-79
2022/09/29 08:22:47;;;;;;;24.23;18.38;;;9.70;99.90;;;;;;5087827;28;20038;-75
2022/09/29 08:25:15;;;;;;;30.60;23.40;;;9.70;99.90;;;;;;5099649;28;20032;-76
2022/09/29 08:27:42;;;;;;;23.80;18.92;;;9.70;99.90;;;;;;5097345;28;20028;-74
2022/09/29 08:30:10;;;;;;;31.73;23.77;;;9.70;99.90;;;;;;5055000;28;20039;-78
2022/09/29 08:32:37;;;;;;;23.48;19.88;;;9.70;99.90;;;;;;5057754;28;20383;-78
2022/09/29 08:35:05;;;;;;;25.13;21.05;;;9.80;99.90;;;;;;5103742;28;20066;-77
2022/09/29 08:37:31;;;;;;;32.15;23.90;;;10.00;99.90;;;;;;5082162;28;20350;-76
2022/09/29 08:39:57;;;;;;;27.88;20.50;;;10.20;99.90;;;;;;5104640;28;20044;-76
2022/09/29 08:42:47;;;;;;;27.95;22.45;;;10.20;99.90;;;;;;5104659;28;20070;-76
2022/09/29 08:45:23;;;;;;;29.75;23.23;;;10.30;99.90;;;;;;5084935;28;20386;-76
2022/09/29 08:47:51;;;;;;;26.02;21.95;;;10.40;99.90;;;;;;5064614;28;20043;-77
2022/09/29 08:50:39;;;;;;;26.13;20.00;;;10.50;99.90;;;;;;5102944;28;20385;-76
2022/09/29 08:53:12;;;;;;;26.27;22.23;;;10.70;99.90;;;;;;5086210;28;20391;-76
2022/09/29 08:55:42;;;;;;;27.35;22.02;;;10.80;99.90;;;;;;5104445;28;20028;-77
2022/09/29 08:58:12;;;;;;;26.95;21.40;;;10.90;99.90;;;;;;5100089;28;20046;-77
2022/09/29 09:00:49;;;;;;;30.17;22.35;;;10.90;99.90;;;;;;5068568;28;20042;-78
2022/09/29 09:03:40;;;;;;;29.63;23.02;;;10.90;99.90;;;;;;5088574;28;20040;-79
2022/09/29 09:06:33;;;;;;;29.05;23.67;;;11.00;99.90;;;;;;5106230;27;20390;-78
2022/09/29 09:09:33;;;;;;;28.75;24.65;;;11.10;99.90;;;;;;5104189;27;20035;-79
2022/09/29 09:12:39;;;;;;;33.17;26.73;;;11.20;99.90;;;;;;5084646;28;20046;-79
2022/09/29 09:15:18;;;;;;;38.47;30.98;;;11.30;99.90;;;;;;5085841;28;20039;-80
2022/09/29 09:18:16;;;;;;;30.35;23.25;;;11.40;99.90;;;;;;5081435;28;20035;-78
2022/09/29 09:21:09;;;;;;;37.08;29.70;;;11.50;99.90;;;;;;5061085;28;20478;-77
2022/09/29 09:23:57;;;;;;;43.22;34.55;;;11.50;99.90;;;;;;5085996;28;20031;-77
2022/09/29 09:26:44;;;;;;;37.03;29.63;;;11.60;99.90;;;;;;5085558;28;20043;-82
2022/09/29 09:29:35;;;;;;;30.33;25.70;;;11.60;99.90;;;;;;5099710;28;20044;-80
2022/09/29 09:32:24;;;;;;;28.08;23.70;;;11.80;99.90;;;;;;5104431;28;20032;-79
2022/09/29 09:34:55;;;;;;;31.85;25.27;;;11.90;99.90;;;;;;5084386;28;20043;-79
2022/09/29 09:37:25;;;;;;;43.67;36.58;;;11.90;99.90;;;;;;5078149;28;20051;-83
2022/09/29 09:39:51;;;;;;;36.85;32.08;;;11.90;99.90;;;;;;5101155;28;20024;-78
2022/09/29 09:42:22;;;;;;;30.27;23.63;;;11.80;99.90;;;;;;5081767;28;20027;-78
2022/09/29 09:44:53;;;;;;;30.45;26.83;;;11.80;99.90;;;;;;5100086;28;20036;-77
2022/09/29 09:47:30;;;;;;;25.33;22.17;;;11.90;99.90;;;;;;5096128;27;20042;-77
2022/09/29 09:50:01;;;;;;;27.40;24.40;;;12.00;99.90;;;;;;5066381;28;20285;-77
2022/09/29 09:52:42;;;;;;;21.55;18.27;;;12.10;99.90;;;;;;5088681;28;21205;-77
2022/09/29 09:55:23;;;;;;;27.05;24.10;;;12.20;99.90;;;;;;5099940;28;20044;-77
2022/09/29 09:58:34;;;;;;;21.80;19.45;;;12.30;99.90;;;;;;5074425;28;20671;-77
2022/09/29 10:01:11;;;;;;;20.38;18.00;;;12.60;99.90;;;;;;5044892;28;20053;-78
2022/09/29 10:03:37;;;;;;;22.13;19.50;;;12.90;99.90;;;;;;5095865;28;20044;-77
2022/09/29 10:06:07;;;;;;;21.85;19.63;;;13.20;99.90;;;;;;5101476;28;20039;-77
2022/09/29 10:08:38;;;;;;;22.70;20.42;;;13.60;99.90;;;;;;5078024;28;20044;-77
2022/09/29 10:11:24;;;;;;;19.67;17.67;;;13.90;99.90;;;;;;5065964;28;20047;-77
2022/09/29 10:13:59;;;;;;;18.45;16.05;;;14.40;99.90;;;;;;5100862;28;20036;-78
2022/09/29 10:16:41;;;;;;;18.15;16.42;;;14.70;99.90;;;;;;5083067;28;20039;-78
2022/09/29 10:19:09;;;;;;;20.20;18.17;;;15.00;99.90;;;;;;5080484;28;20043;-78
2022/09/29 10:21:41;;;;;;;15.85;14.35;;;15.20;99.90;;;;;;5111405;28;20478;-78
2022/09/29 10:24:22;;;;;;;14.70;13.25;;;15.50;99.90;;;;;;5069901;28;20032;-78
2022/09/29 10:26:54;;;;;;;12.10;10.73;;;16.00;99.90;;;;;;5099292;28;20051;-78
2022/09/29 10:29:33;;;;;;;12.40;11.20;;;16.30;99.90;;;;;;5099324;28;20044;-73
2022/09/29 10:32:15;;;;;;;11.90;10.70;;;16.70;99.90;;;;;;5098418;28;20058;-74
2022/09/29 10:34:45;;;;;;;9.88;8.93;;;17.10;99.90;;;;;;5099868;28;20042;-73
2022/09/29 10:37:34;;;;;;;9.50;8.60;;;17.60;99.90;;;;;;5095475;27;20038;-74
2022/09/29 10:40:12;;;;;;;8.05;7.35;;;18.00;99.90;;;;;;5102978;28;20035;-76
2022/09/29 10:42:40;;;;;;;6.10;5.68;;;18.40;99.90;;;;;;5102367;28;20043;-76
2022/09/29 10:45:12;;;;;;;5.45;4.95;;;18.70;99.90;;;;;;5083902;28;20035;-76
2022/09/29 10:47:40;;;;;;;8.45;7.57;;;19.10;99.90;;;;;;5055449;28;20032;-76
2022/09/29 10:50:22;;;;;;;4.30;3.90;;;19.50;99.90;;;;;;5084022;28;20422;-80
2022/09/29 10:52:54;;;;;;;7.70;6.75;;;19.80;99.90;;;;;;5072522;28;20039;-75
2022/09/29 10:55:27;;;;;;;6.32;5.53;;;20.20;99.90;;;;;;5101746;28;20047;-76
2022/09/29 10:57:57;;;;;;;5.90;5.13;;;20.50;99.90;;;;;;5097662;28;21211;-76
2022/09/29 11:00:38;;;;;;;5.50;4.38;;;20.70;99.90;;;;;;5100235;28;20040;-76
2022/09/29 11:03:27;;;;;;;5.75;5.18;;;20.90;99.90;;;;;;5083899;28;20050;-76
2022/09/29 11:06:12;;;;;;;3.45;3.00;;;21.20;99.90;;;;;;5062989;28;20048;-76
2022/09/29 11:08:58;;;;;;;4.65;3.47;;;21.30;99.90;;;;;;5078325;28;20479;-76
2022/09/29 11:11:25;;;;;;;3.10;2.83;;;21.70;99.90;;;;;;5082831;28;20505;-76
2022/09/29 11:13:52;;;;;;;3.60;2.72;;;22.00;99.90;;;;;;5083551;28;20040;-76
2022/09/29 11:16:30;;;;;;;5.50;2.30;;;22.30;99.90;;;;;;5100844;28;20039;-76
2022/09/29 11:19:02;;;;;;;3.10;2.75;;;22.40;99.90;;;;;;5096651;28;20047;-76
2022/09/29 11:21:40;;;;;;;3.63;2.78;;;22.20;99.90;;;;;;5083110;28;20035;-76
2022/09/29 11:24:39;;;;;;;2.88;1.48;;;22.20;99.90;;;;;;5073080;28;20035;-76
2022/09/29 11:27:47;;;;;;;4.38;2.70;;;22.10;99.70;;;;;;5078988;28;20043;-75
2022/09/29 11:30:18;;;;;;;1.90;1.55;;;21.90;98.10;;;;;;5081666;28;20027;-75
2022/09/29 11:32:50;;;;;;;2.45;1.00;;;21.60;97.60;;;;;;5081919;28;20323;-75
2022/09/29 11:35:43;;;;;;;1.60;0.90;;;21.70;97.90;;;;;;5081124;28;20401;-75
2022/09/29 11:38:20;;;;;;;2.78;1.90;;;21.80;97.70;;;;;;5093444;28;20046;-75
2022/09/29 11:41:08;;;;;;;1.60;1.27;;;21.50;98.00;;;;;;5082724;28;20038;-74
2022/09/29 11:43:44;;;;;;;2.65;1.25;;;20.90;96.80;;;;;;5085580;28;20055;-74
2022/09/29 11:46:35;;;;;;;2.45;2.22;;;20.20;97.40;;;;;;5079402;28;20047;-74
2022/09/29 11:49:38;;;;;;;3.22;2.03;;;19.90;97.80;;;;;;5095589;28;20038;-75
2022/09/29 11:52:37;;;;;;;3.22;2.70;;;19.50;97.80;;;;;;5084454;28;20043;-73
2022/09/29 11:55:32;;;;;;;2.72;1.65;;;18.80;98.30;;;;;;5098610;28;20516;-75
2022/09/29 11:58:07;;;;;;;2.90;2.20;;;18.30;99.20;;;;;;5095800;28;20036;-74
2022/09/29 12:00:50;;;;;;;2.25;1.38;;;19.10;99.80;;;;;;5065309;28;20035;-75
2022/09/29 12:03:29;;;;;;;1.63;1.00;;;20.60;99.00;;;;;;5098606;28;20043;-75
2022/09/29 12:06:16;;;;;;;3.42;1.52;;;22.00;97.70;;;;;;5082007;28;20047;-75
2022/09/29 12:09:05;;;;;;;1.85;0.98;;;22.50;95.40;;;;;;5094201;28;20035;-75
2022/09/29 12:11:52;;;;;;;2.55;1.52;;;23.30;95.10;;;;;;5101122;28;20509;-75
2022/09/29 12:14:40;;;;;;;2.85;1.70;;;23.40;93.40;;;;;;5051093;28;20059;-76
2022/09/29 12:17:14;;;;;;;2.20;1.45;;;22.50;93.30;;;;;;5078067;28;20055;-75
2022/09/29 12:19:42;;;;;;;9.57;3.20;;;21.40;94.20;;;;;;5069128;28;20050;-76
2022/09/29 12:22:14;;;;;;;3.03;1.30;;;20.60;94.70;;;;;;5101193;28;20034;-76
2022/09/29 12:24:45;;;;;;;2.72;1.20;;;19.80;95.20;;;;;;5053103;28;20028;-75
2022/09/29 12:27:18;;;;;;;3.17;1.70;;;19.50;96.20;;;;;;5095947;28;20039;-75
2022/09/29 12:29:57;;;;;;;3.92;2.10;;;20.40;96.40;;;;;;5101503;28;20027;-75
2022/09/29 12:32:30;;;;;;;2.35;1.90;;;21.80;94.40;;;;;;5081585;28;20039;-76
2022/09/29 12:35:05;;;;;;;3.15;1.60;;;22.50;93.20;;;;;;5081792;28;20408;-75
2022/09/29 12:37:54;;;;;;;3.33;1.23;;;22.00;92.50;;;;;;5097074;28;20043;-75
2022/09/29 12:40:37;;;;;;;1.83;1.15;;;21.20;92.70;;;;;;5081312;28;20040;-75
2022/09/29 12:43:11;;;;;;;2.80;1.25;;;20.20;93.50;;;;;;5086731;28;20066;-74
2022/09/29 12:45:50;;;;;;;2.80;1.40;;;19.50;94.20;;;;;;5101061;28;20044;-74
2022/09/29 12:48:41;;;;;;;1.70;1.10;;;19.00;94.80;;;;;;5077252;28;20038;-74
2022/09/29 12:51:29;;;;;;;2.45;1.30;;;19.60;95.30;;;;;;5082540;28;20476;-75
2022/09/29 12:54:29;;;;;;;2.45;1.67;;;21.20;94.70;;;;;;5082231;28;20043;-75
2022/09/29 12:57:09;;;;;;;1.70;1.00;;;22.80;92.70;;;;;;5095585;28;20059;-76
2022/09/29 13:00:01;;;;;;;2.47;1.00;;;24.30;90.70;;;;;;5082712;28;20035;-77
2022/09/29 13:02:36;;;;;;;;;;;25.40;88.80;;;;;;5068432;28;20052;-76
2022/09/29 13:05:24;;;;;;;2.50;0.50;;;26.30;87.20;;;;;;5101238;28;19923;-77
2022/09/29 13:08:24;;;;;;;1.10;0.50;;;27.20;83.60;;;;;;5083432;28;20022;-76
2022/09/29 13:10:56;;;;;;;2.17;0.70;;;27.30;78.10;;;;;;5100652;28;20032;-76
2022/09/29 13:13:43;;;;;;;2.03;0.93;;;25.90;78.00;;;;;;5101125;28;20039;-76
2022/09/29 13:16:19;;;;;;;3.88;0.90;;;24.50;79.40;;;;;;5082035;28;20552;-76
2022/09/29 13:19:15;;;;;;;1.25;0.70;;;23.20;82.00;;;;;;5095557;28;20065;-76
2022/09/29 13:22:05;;;;;;;1.60;0.60;;;22.20;84.10;;;;;;5104218;28;20024;-76